sensor_id;sensor_type;location;lat;lon;timestamp;P1;durP1;ratioP1;P2;durP2;ratioP2
52962;SDS011;38827;53.024;6.596;2023-11-19T00:03:12;40.10;;;21.83;;
52962;SDS011;38827;53.024;6.596;2023-11-19T00:05:38;37.45;;;20.95;;
52962;SDS011;38827;53.024;6.596;2023-11-19T00:08:04;38.83;;;21.30;;
52962;SDS011;38827;53.024;6.596;2023-11-19T00:10:39;34.38;;;20.63;;
52962;SDS011;38827;53.024;6.596;2023-11-19T00:13:10;43.80;;;22.17;;
52962;SDS011;38827;53.024;6.596;2023-11-19T00:15:37;38.45;;;21.90;;
52962;SDS011;38827;53.024;6.596;2023-11-19T00:18:16;45.28;;;21.63;;
52962;SDS011;38827;53.024;6.596;2023-11-19T00:20:41;35.92;;;20.10;;
52962;SDS011;38827;53.024;6.596;2023-11-19T00:23:09;34.50;;;18.98;;
52962;SDS011;38827;53.024;6.596;2023-11-19T00:25:35;33.80;;;17.13;;
52962;SDS011;38827;53.024;6.596;2023-11-19T00:28:01;30.10;;;16.73;;
52962;SDS011;38827;53.024;6.596;2023-11-19T00:30:26;38.78;;;18.23;;
52962;SDS011;38827;53.024;6.596;2023-11-19T00:32:52;38.70;;;16.83;;
52962;SDS011;38827;53.024;6.596;2023-11-19T00:35:18;38.65;;;16.70;;
52962;SDS011;38827;53.024;6.596;2023-11-19T00:37:44;31.33;;;15.70;;
52962;SDS011;38827;53.024;6.596;2023-11-19T00:40:10;37.45;;;14.85;;
52962;SDS011;38827;53.024;6.596;2023-11-19T00:42:42;37.55;;;14.88;;
52962;SDS011;38827;53.024;6.596;2023-11-19T00:45:14;34.42;;;13.10;;
52962;SDS011;38827;53.024;6.596;2023-11-19T00:47:51;37.65;;;12.43;;
52962;SDS011;38827;53.024;6.596;2023-11-19T00:50:35;41.33;;;11.23;;
52962;SDS011;38827;53.024;6.596;2023-11-19T00:55:38;38.73;;;9.60;;
52962;SDS011;38827;53.024;6.596;2023-11-19T00:58:23;44.15;;;9.30;;
52962;SDS011;38827;53.024;6.596;2023-11-19T01:00:58;46.40;;;8.63;;
52962;SDS011;38827;53.024;6.596;2023-11-19T01:03:37;45.42;;;9.65;;
52962;SDS011;38827;53.024;6.596;2023-11-19T01:06:12;44.97;;;7.45;;
52962;SDS011;38827;53.024;6.596;2023-11-19T01:08:39;34.33;;;7.20;;
52962;SDS011;38827;53.024;6.596;2023-11-19T01:11:04;43.25;;;7.93;;
52962;SDS011;38827;53.024;6.596;2023-11-19T01:13:30;39.42;;;7.90;;
52962;SDS011;38827;53.024;6.596;2023-11-19T01:16:12;41.38;;;6.80;;
52962;SDS011;38827;53.024;6.596;2023-11-19T01:18:38;40.55;;;6.03;;
52962;SDS011;38827;53.024;6.596;2023-11-19T01:21:04;41.45;;;6.18;;
52962;SDS011;38827;53.024;6.596;2023-11-19T01:23:34;37.47;;;6.17;;
52962;SDS011;38827;53.024;6.596;2023-11-19T01:26:00;44.65;;;6.72;;
52962;SDS011;38827;53.024;6.596;2023-11-19T01:28:38;42.08;;;6.22;;
52962;SDS011;38827;53.024;6.596;2023-11-19T01:45:54;38.35;;;6.13;;
52962;SDS011;38827;53.024;6.596;2023-11-19T01:48:20;38.60;;;5.47;;
52962;SDS011;38827;53.024;6.596;2023-11-19T01:50:46;44.58;;;5.70;;
52962;SDS011;38827;53.024;6.596;2023-11-19T01:53:15;34.40;;;6.07;;
52962;SDS011;38827;53.024;6.596;2023-11-19T01:55:46;37.42;;;5.40;;
52962;SDS011;38827;53.024;6.596;2023-11-19T01:58:13;47.08;;;6.28;;
52962;SDS011;38827;53.024;6.596;2023-11-19T02:00:39;38.88;;;5.55;;
52962;SDS011;38827;53.024;6.596;2023-11-19T02:03:06;42.80;;;6.55;;
52962;SDS011;38827;53.024;6.596;2023-11-19T02:05:33;43.35;;;6.20;;
52962;SDS011;38827;53.024;6.596;2023-11-19T02:07:59;34.97;;;5.53;;
52962;SDS011;38827;53.024;6.596;2023-11-19T02:10:26;37.63;;;5.82;;
52962;SDS011;38827;53.024;6.596;2023-11-19T02:12:52;39.13;;;6.47;;
52962;SDS011;38827;53.024;6.596;2023-11-19T02:15:17;43.38;;;5.82;;
52962;SDS011;38827;53.024;6.596;2023-11-19T02:17:49;29.00;;;5.35;;
52962;SDS011;38827;53.024;6.596;2023-11-19T02:20:25;38.20;;;6.25;;
52962;SDS011;38827;53.024;6.596;2023-11-19T02:22:51;38.95;;;6.38;;
52962;SDS011;38827;53.024;6.596;2023-11-19T02:25:19;39.50;;;5.55;;
52962;SDS011;38827;53.024;6.596;2023-11-19T02:28:01;36.20;;;6.25;;
52962;SDS011;38827;53.024;6.596;2023-11-19T02:30:28;43.47;;;5.40;;
52962;SDS011;38827;53.024;6.596;2023-11-19T02:32:57;40.00;;;5.93;;
52962;SDS011;38827;53.024;6.596;2023-11-19T02:35:29;38.67;;;6.63;;
52962;SDS011;38827;53.024;6.596;2023-11-19T02:38:00;39.22;;;6.70;;
52962;SDS011;38827;53.024;6.596;2023-11-19T02:40:29;40.25;;;6.05;;
52962;SDS011;38827;53.024;6.596;2023-11-19T02:42:56;34.67;;;6.15;;
52962;SDS011;38827;53.024;6.596;2023-11-19T02:45:23;38.08;;;6.88;;
52962;SDS011;38827;53.024;6.596;2023-11-19T02:47:49;33.72;;;6.68;;
52962;SDS011;38827;53.024;6.596;2023-11-19T02:50:15;28.35;;;4.78;;
52962;SDS011;38827;53.024;6.596;2023-11-19T02:52:50;38.95;;;6.18;;
52962;SDS011;38827;53.024;6.596;2023-11-19T02:55:17;33.78;;;6.00;;
52962;SDS011;38827;53.024;6.596;2023-11-19T02:57:43;39.72;;;6.18;;
52962;SDS011;38827;53.024;6.596;2023-11-19T03:00:15;27.33;;;5.07;;
52962;SDS011;38827;53.024;6.596;2023-11-19T03:02:48;40.63;;;7.10;;
52962;SDS011;38827;53.024;6.596;2023-11-19T03:05:23;37.60;;;6.10;;
52962;SDS011;38827;53.024;6.596;2023-11-19T03:07:53;37.95;;;6.18;;
52962;SDS011;38827;53.024;6.596;2023-11-19T03:22:05;38.33;;;6.05;;
52962;SDS011;38827;53.024;6.596;2023-11-19T03:24:35;34.45;;;5.13;;
52962;SDS011;38827;53.024;6.596;2023-11-19T03:27:03;35.88;;;6.72;;
52962;SDS011;38827;53.024;6.596;2023-11-19T03:29:29;36.90;;;6.25;;
52962;SDS011;38827;53.024;6.596;2023-11-19T03:31:55;38.65;;;6.85;;
52962;SDS011;38827;53.024;6.596;2023-11-19T03:34:44;36.67;;;5.30;;
52962;SDS011;38827;53.024;6.596;2023-11-19T03:37:19;29.05;;;5.95;;
52962;SDS011;38827;53.024;6.596;2023-11-19T03:39:44;35.05;;;5.25;;
52962;SDS011;38827;53.024;6.596;2023-11-19T03:42:10;38.92;;;6.43;;
52962;SDS011;38827;53.024;6.596;2023-11-19T03:44:38;47.08;;;6.35;;
52962;SDS011;38827;53.024;6.596;2023-11-19T03:47:07;37.28;;;6.28;;
52962;SDS011;38827;53.024;6.596;2023-11-19T03:49:51;34.65;;;5.72;;
52962;SDS011;38827;53.024;6.596;2023-11-19T03:52:17;44.85;;;6.80;;
52962;SDS011;38827;53.024;6.596;2023-11-19T03:54:43;42.33;;;6.97;;
52962;SDS011;38827;53.024;6.596;2023-11-19T03:57:10;34.92;;;6.95;;
52962;SDS011;38827;53.024;6.596;2023-11-19T04:02:09;35.97;;;6.15;;
52962;SDS011;38827;53.024;6.596;2023-11-19T04:04:35;40.20;;;6.03;;
52962;SDS011;38827;53.024;6.596;2023-11-19T04:07:07;40.47;;;6.97;;
52962;SDS011;38827;53.024;6.596;2023-11-19T04:09:33;44.75;;;6.93;;
52962;SDS011;38827;53.024;6.596;2023-11-19T04:11:59;40.40;;;5.80;;
52962;SDS011;38827;53.024;6.596;2023-11-19T04:14:28;37.40;;;6.20;;
52962;SDS011;38827;53.024;6.596;2023-11-19T04:16:54;35.85;;;6.25;;
52962;SDS011;38827;53.024;6.596;2023-11-19T04:22:58;49.45;;;7.57;;
52962;SDS011;38827;53.024;6.596;2023-11-19T04:25:31;40.30;;;6.95;;
52962;SDS011;38827;53.024;6.596;2023-11-19T04:28:00;39.45;;;7.13;;
52962;SDS011;38827;53.024;6.596;2023-11-19T04:30:28;43.10;;;6.25;;
52962;SDS011;38827;53.024;6.596;2023-11-19T04:33:00;45.20;;;6.70;;
52962;SDS011;38827;53.024;6.596;2023-11-19T04:35:29;51.50;;;7.35;;
52962;SDS011;38827;53.024;6.596;2023-11-19T04:38:07;40.28;;;6.65;;
52962;SDS011;38827;53.024;6.596;2023-11-19T04:40:32;50.13;;;8.25;;
52962;SDS011;38827;53.024;6.596;2023-11-19T05:06:58;40.30;;;6.97;;
52962;SDS011;38827;53.024;6.596;2023-11-19T05:09:24;40.33;;;6.65;;
52962;SDS011;38827;53.024;6.596;2023-11-19T05:11:53;50.33;;;6.73;;
52962;SDS011;38827;53.024;6.596;2023-11-19T05:17:13;46.53;;;6.88;;
52962;SDS011;38827;53.024;6.596;2023-11-19T05:19:39;43.97;;;6.70;;
52962;SDS011;38827;53.024;6.596;2023-11-19T05:22:10;48.33;;;7.25;;
52962;SDS011;38827;53.024;6.596;2023-11-19T05:24:36;41.85;;;7.07;;
52962;SDS011;38827;53.024;6.596;2023-11-19T05:27:02;45.05;;;7.57;;
52962;SDS011;38827;53.024;6.596;2023-11-19T05:29:34;42.30;;;6.63;;
52962;SDS011;38827;53.024;6.596;2023-11-19T05:31:59;46.03;;;7.38;;
52962;SDS011;38827;53.024;6.596;2023-11-19T05:34:41;43.33;;;7.32;;
52962;SDS011;38827;53.024;6.596;2023-11-19T05:37:16;39.80;;;6.72;;
52962;SDS011;38827;53.024;6.596;2023-11-19T05:39:42;47.30;;;7.72;;
52962;SDS011;38827;53.024;6.596;2023-11-19T05:42:17;46.33;;;7.57;;
52962;SDS011;38827;53.024;6.596;2023-11-19T05:44:43;47.63;;;7.00;;
52962;SDS011;38827;53.024;6.596;2023-11-19T05:47:26;46.03;;;7.20;;
52962;SDS011;38827;53.024;6.596;2023-11-19T05:49:58;46.17;;;6.82;;
52962;SDS011;38827;53.024;6.596;2023-11-19T05:52:27;48.72;;;7.15;;
52962;SDS011;38827;53.024;6.596;2023-11-19T05:55:01;40.97;;;6.75;;
52962;SDS011;38827;53.024;6.596;2023-11-19T05:57:57;47.88;;;6.80;;
52962;SDS011;38827;53.024;6.596;2023-11-19T06:00:23;44.22;;;7.10;;
52962;SDS011;38827;53.024;6.596;2023-11-19T06:02:48;46.65;;;6.90;;
52962;SDS011;38827;53.024;6.596;2023-11-19T06:07:54;48.50;;;8.40;;
52962;SDS011;38827;53.024;6.596;2023-11-19T06:14:05;48.20;;;6.85;;
52962;SDS011;38827;53.024;6.596;2023-11-19T06:16:41;40.78;;;6.85;;
52962;SDS011;38827;53.024;6.596;2023-11-19T06:19:10;48.60;;;6.35;;
52962;SDS011;38827;53.024;6.596;2023-11-19T06:21:46;42.92;;;7.05;;
52962;SDS011;38827;53.024;6.596;2023-11-19T06:42:37;44.35;;;6.47;;
52962;SDS011;38827;53.024;6.596;2023-11-19T06:45:06;47.47;;;8.03;;
52962;SDS011;38827;53.024;6.596;2023-11-19T06:47:35;38.30;;;6.70;;
52962;SDS011;38827;53.024;6.596;2023-11-19T06:50:07;50.40;;;7.53;;
52962;SDS011;38827;53.024;6.596;2023-11-19T06:55:21;39.22;;;7.38;;
52962;SDS011;38827;53.024;6.596;2023-11-19T06:57:50;43.42;;;6.72;;
52962;SDS011;38827;53.024;6.596;2023-11-19T07:00:47;45.58;;;7.90;;
52962;SDS011;38827;53.024;6.596;2023-11-19T07:03:17;46.90;;;7.40;;
52962;SDS011;38827;53.024;6.596;2023-11-19T07:05:45;40.88;;;6.53;;
52962;SDS011;38827;53.024;6.596;2023-11-19T07:08:23;47.70;;;7.55;;
52962;SDS011;38827;53.024;6.596;2023-11-19T07:10:58;46.22;;;7.90;;
52962;SDS011;38827;53.024;6.596;2023-11-19T07:13:24;43.50;;;7.25;;
52962;SDS011;38827;53.024;6.596;2023-11-19T07:15:50;47.30;;;7.75;;
52962;SDS011;38827;53.024;6.596;2023-11-19T07:18:31;53.42;;;7.20;;
52962;SDS011;38827;53.024;6.596;2023-11-19T07:24:21;42.17;;;6.55;;
52962;SDS011;38827;53.024;6.596;2023-11-19T07:26:47;43.33;;;8.03;;
52962;SDS011;38827;53.024;6.596;2023-11-19T07:29:28;50.05;;;7.00;;
52962;SDS011;38827;53.024;6.596;2023-11-19T07:31:54;37.30;;;6.00;;
52962;SDS011;38827;53.024;6.596;2023-11-19T07:34:39;39.33;;;7.68;;
52962;SDS011;38827;53.024;6.596;2023-11-19T07:37:05;39.70;;;6.78;;
52962;SDS011;38827;53.024;6.596;2023-11-19T07:39:42;40.25;;;6.63;;
52962;SDS011;38827;53.024;6.596;2023-11-19T07:59:58;37.00;;;6.05;;
52962;SDS011;38827;53.024;6.596;2023-11-19T09:00:34;45.80;;;7.57;;
52962;SDS011;38827;53.024;6.596;2023-11-19T09:03:07;41.53;;;7.13;;
52962;SDS011;38827;53.024;6.596;2023-11-19T09:05:55;47.30;;;8.38;;
52962;SDS011;38827;53.024;6.596;2023-11-19T09:11:44;46.90;;;6.32;;
52962;SDS011;38827;53.024;6.596;2023-11-19T09:14:17;46.13;;;6.07;;
52962;SDS011;38827;53.024;6.596;2023-11-19T09:16:50;55.17;;;7.13;;
52962;SDS011;38827;53.024;6.596;2023-11-19T09:19:18;40.22;;;7.75;;
52962;SDS011;38827;53.024;6.596;2023-11-19T09:25:15;43.20;;;7.20;;
52962;SDS011;38827;53.024;6.596;2023-11-19T09:27:42;36.92;;;7.43;;
52962;SDS011;38827;53.024;6.596;2023-11-19T09:33:25;46.60;;;7.28;;
52962;SDS011;38827;53.024;6.596;2023-11-19T09:40:16;39.95;;;6.50;;
52962;SDS011;38827;53.024;6.596;2023-11-19T10:10:50;41.15;;;6.60;;
52962;SDS011;38827;53.024;6.596;2023-11-19T10:13:26;48.70;;;7.32;;
52962;SDS011;38827;53.024;6.596;2023-11-19T10:40:45;42.10;;;6.82;;
52962;SDS011;38827;53.024;6.596;2023-11-19T11:08:36;38.70;;;6.55;;
52962;SDS011;38827;53.024;6.596;2023-11-19T11:44:14;38.70;;;7.00;;
52962;SDS011;38827;53.024;6.596;2023-11-19T13:32:42;35.10;;;5.45;;
52962;SDS011;38827;53.024;6.596;2023-11-19T13:35:25;31.90;;;6.07;;
52962;SDS011;38827;53.024;6.596;2023-11-19T13:44:28;32.95;;;4.70;;
52962;SDS011;38827;53.024;6.596;2023-11-19T13:46:54;28.23;;;5.43;;
52962;SDS011;38827;53.024;6.596;2023-11-19T13:49:28;32.72;;;6.20;;
52962;SDS011;38827;53.024;6.596;2023-11-19T13:51:54;27.63;;;4.97;;
52962;SDS011;38827;53.024;6.596;2023-11-19T17:38:27;38.00;;;7.40;;
52962;SDS011;38827;53.024;6.596;2023-11-19T17:47:57;36.63;;;5.82;;
52962;SDS011;38827;53.024;6.596;2023-11-19T17:50:23;45.20;;;6.38;;
52962;SDS011;38827;53.024;6.596;2023-11-19T17:52:50;29.20;;;5.35;;
52962;SDS011;38827;53.024;6.596;2023-11-19T18:11:35;30.67;;;5.63;;
52962;SDS011;38827;53.024;6.596;2023-11-19T18:14:19;26.02;;;5.10;;
52962;SDS011;38827;53.024;6.596;2023-11-19T18:16:46;28.98;;;4.97;;
52962;SDS011;38827;53.024;6.596;2023-11-19T18:19:39;30.17;;;5.10;;
52962;SDS011;38827;53.024;6.596;2023-11-19T18:24:42;30.60;;;6.00;;
52962;SDS011;38827;53.024;6.596;2023-11-19T18:27:24;35.35;;;5.68;;
52962;SDS011;38827;53.024;6.596;2023-11-19T18:29:56;28.15;;;6.00;;
52962;SDS011;38827;53.024;6.596;2023-11-19T18:32:28;38.40;;;6.45;;
52962;SDS011;38827;53.024;6.596;2023-11-19T18:35:03;34.60;;;5.95;;
52962;SDS011;38827;53.024;6.596;2023-11-19T18:37:42;34.25;;;6.47;;
52962;SDS011;38827;53.024;6.596;2023-11-19T18:40:08;39.03;;;6.20;;
52962;SDS011;38827;53.024;6.596;2023-11-19T18:42:53;35.83;;;7.28;;
52962;SDS011;38827;53.024;6.596;2023-11-19T18:51:27;33.50;;;8.38;;
52962;SDS011;38827;53.024;6.596;2023-11-19T18:57:26;36.92;;;6.40;;
52962;SDS011;38827;53.024;6.596;2023-11-19T18:59:52;32.08;;;5.38;;
52962;SDS011;38827;53.024;6.596;2023-11-19T19:09:10;31.52;;;6.70;;
52962;SDS011;38827;53.024;6.596;2023-11-19T19:11:36;29.90;;;5.78;;
52962;SDS011;38827;53.024;6.596;2023-11-19T19:14:05;26.70;;;5.35;;
52962;SDS011;38827;53.024;6.596;2023-11-19T19:28:39;25.98;;;4.78;;
52962;SDS011;38827;53.024;6.596;2023-11-19T19:34:02;23.30;;;4.40;;
52962;SDS011;38827;53.024;6.596;2023-11-19T19:46:25;16.45;;;4.07;;
52962;SDS011;38827;53.024;6.596;2023-11-19T19:59:49;10.13;;;3.05;;
52962;SDS011;38827;53.024;6.596;2023-11-19T20:05:25;7.60;;;2.40;;
52962;SDS011;38827;53.024;6.596;2023-11-19T20:08:11;11.63;;;2.88;;
52962;SDS011;38827;53.024;6.596;2023-11-19T20:11:12;14.80;;;2.58;;
52962;SDS011;38827;53.024;6.596;2023-11-19T20:21:01;7.45;;;1.92;;
52962;SDS011;38827;53.024;6.596;2023-11-19T20:23:46;8.02;;;2.00;;
52962;SDS011;38827;53.024;6.596;2023-11-19T20:26:12;5.03;;;1.67;;
52962;SDS011;38827;53.024;6.596;2023-11-19T20:28:49;10.23;;;2.58;;
52962;SDS011;38827;53.024;6.596;2023-11-19T20:31:24;8.48;;;2.65;;
52962;SDS011;38827;53.024;6.596;2023-11-19T20:33:50;6.10;;;2.40;;
52962;SDS011;38827;53.024;6.596;2023-11-19T20:36:15;9.85;;;2.35;;
52962;SDS011;38827;53.024;6.596;2023-11-19T20:38:41;5.43;;;2.20;;
52962;SDS011;38827;53.024;6.596;2023-11-19T20:41:20;5.55;;;1.75;;
52962;SDS011;38827;53.024;6.596;2023-11-19T20:43:48;6.28;;;1.60;;
52962;SDS011;38827;53.024;6.596;2023-11-19T20:46:17;5.18;;;1.70;;
52962;SDS011;38827;53.024;6.596;2023-11-19T20:48:43;5.10;;;2.50;;
52962;SDS011;38827;53.024;6.596;2023-11-19T20:51:15;11.07;;;5.70;;
52962;SDS011;38827;53.024;6.596;2023-11-19T20:53:41;6.35;;;2.25;;
52962;SDS011;38827;53.024;6.596;2023-11-19T20:56:10;6.17;;;2.23;;
52962;SDS011;38827;53.024;6.596;2023-11-19T20:58:36;10.13;;;2.08;;
52962;SDS011;38827;53.024;6.596;2023-11-19T21:01:02;8.15;;;2.30;;
52962;SDS011;38827;53.024;6.596;2023-11-19T21:03:30;10.00;;;2.55;;
52962;SDS011;38827;53.024;6.596;2023-11-19T21:05:56;7.53;;;2.53;;
52962;SDS011;38827;53.024;6.596;2023-11-19T21:08:22;11.75;;;2.75;;
52962;SDS011;38827;53.024;6.596;2023-11-19T21:10:54;15.25;;;2.97;;
52962;SDS011;38827;53.024;6.596;2023-11-19T21:13:19;13.73;;;3.10;;
52962;SDS011;38827;53.024;6.596;2023-11-19T21:16:00;15.35;;;3.20;;
52962;SDS011;38827;53.024;6.596;2023-11-19T21:18:35;19.35;;;3.05;;
52962;SDS011;38827;53.024;6.596;2023-11-19T21:21:13;20.63;;;3.88;;
52962;SDS011;38827;53.024;6.596;2023-11-19T21:23:52;21.42;;;3.35;;
52962;SDS011;38827;53.024;6.596;2023-11-19T21:26:35;20.60;;;3.72;;
52962;SDS011;38827;53.024;6.596;2023-11-19T21:29:01;21.02;;;3.83;;
52962;SDS011;38827;53.024;6.596;2023-11-19T21:31:47;21.70;;;3.78;;
52962;SDS011;38827;53.024;6.596;2023-11-19T21:34:38;21.60;;;4.10;;
52962;SDS011;38827;53.024;6.596;2023-11-19T21:37:14;20.60;;;3.72;;
52962;SDS011;38827;53.024;6.596;2023-11-19T21:39:43;23.77;;;4.22;;
52962;SDS011;38827;53.024;6.596;2023-11-19T21:42:18;27.70;;;4.18;;
52962;SDS011;38827;53.024;6.596;2023-11-19T21:44:55;25.08;;;4.78;;
52962;SDS011;38827;53.024;6.596;2023-11-19T21:47:27;24.73;;;4.03;;
52962;SDS011;38827;53.024;6.596;2023-11-19T21:49:53;18.77;;;3.95;;
52962;SDS011;38827;53.024;6.596;2023-11-19T21:52:19;25.20;;;4.15;;
52962;SDS011;38827;53.024;6.596;2023-11-19T21:54:44;22.77;;;3.20;;
52962;SDS011;38827;53.024;6.596;2023-11-19T21:57:10;19.48;;;3.08;;
52962;SDS011;38827;53.024;6.596;2023-11-19T21:59:36;23.13;;;3.28;;
52962;SDS011;38827;53.024;6.596;2023-11-19T22:02:05;18.20;;;3.50;;
52962;SDS011;38827;53.024;6.596;2023-11-19T22:04:34;15.13;;;2.17;;
52962;SDS011;38827;53.024;6.596;2023-11-19T22:07:00;10.48;;;2.20;;
52962;SDS011;38827;53.024;6.596;2023-11-19T22:09:30;16.58;;;2.67;;
52962;SDS011;38827;53.024;6.596;2023-11-19T22:11:56;12.10;;;2.58;;
52962;SDS011;38827;53.024;6.596;2023-11-19T22:14:31;15.45;;;2.60;;
52962;SDS011;38827;53.024;6.596;2023-11-19T22:17:00;16.50;;;2.70;;
52962;SDS011;38827;53.024;6.596;2023-11-19T22:19:26;10.43;;;2.27;;
52962;SDS011;38827;53.024;6.596;2023-11-19T22:21:52;10.35;;;1.70;;
52962;SDS011;38827;53.024;6.596;2023-11-19T22:24:27;6.50;;;1.20;;
52962;SDS011;38827;53.024;6.596;2023-11-19T22:26:52;3.15;;;0.73;;
52962;SDS011;38827;53.024;6.596;2023-11-19T22:31:43;3.72;;;0.60;;
52962;SDS011;38827;53.024;6.596;2023-11-19T22:37:06;4.72;;;1.10;;
52962;SDS011;38827;53.024;6.596;2023-11-19T22:39:31;4.93;;;0.88;;
52962;SDS011;38827;53.024;6.596;2023-11-19T22:42:15;15.05;;;2.30;;
52962;SDS011;38827;53.024;6.596;2023-11-19T22:44:44;17.63;;;2.53;;
52962;SDS011;38827;53.024;6.596;2023-11-19T22:47:13;18.67;;;2.97;;
52962;SDS011;38827;53.024;6.596;2023-11-19T22:49:53;18.60;;;2.53;;
52962;SDS011;38827;53.024;6.596;2023-11-19T22:52:19;10.18;;;2.45;;
52962;SDS011;38827;53.024;6.596;2023-11-19T22:54:45;11.55;;;2.28;;
52962;SDS011;38827;53.024;6.596;2023-11-19T22:57:10;12.07;;;2.33;;
52962;SDS011;38827;53.024;6.596;2023-11-19T22:59:39;12.65;;;2.58;;
52962;SDS011;38827;53.024;6.596;2023-11-19T23:02:07;11.02;;;2.92;;
52962;SDS011;38827;53.024;6.596;2023-11-19T23:04:33;13.55;;;3.25;;
52962;SDS011;38827;53.024;6.596;2023-11-19T23:06:59;14.38;;;3.60;;
52962;SDS011;38827;53.024;6.596;2023-11-19T23:09:40;15.93;;;3.70;;
52962;SDS011;38827;53.024;6.596;2023-11-19T23:12:06;13.82;;;3.10;;
52962;SDS011;38827;53.024;6.596;2023-11-19T23:14:35;20.97;;;3.60;;
52962;SDS011;38827;53.024;6.596;2023-11-19T23:17:00;15.43;;;3.13;;
52962;SDS011;38827;53.024;6.596;2023-11-19T23:19:26;15.18;;;2.42;;
52962;SDS011;38827;53.024;6.596;2023-11-19T23:21:52;17.52;;;3.00;;
52962;SDS011;38827;53.024;6.596;2023-11-19T23:24:18;12.05;;;2.47;;
52962;SDS011;38827;53.024;6.596;2023-11-19T23:26:43;12.95;;;2.40;;
52962;SDS011;38827;53.024;6.596;2023-11-19T23:29:09;15.38;;;2.30;;
52962;SDS011;38827;53.024;6.596;2023-11-19T23:31:34;13.10;;;2.42;;
52962;SDS011;38827;53.024;6.596;2023-11-19T23:34:00;14.98;;;2.50;;
52962;SDS011;38827;53.024;6.596;2023-11-19T23:36:27;18.63;;;3.13;;
52962;SDS011;38827;53.024;6.596;2023-11-19T23:38:55;16.50;;;3.13;;
52962;SDS011;38827;53.024;6.596;2023-11-19T23:41:21;15.70;;;2.85;;
52962;SDS011;38827;53.024;6.596;2023-11-19T23:43:48;19.55;;;3.25;;
52962;SDS011;38827;53.024;6.596;2023-11-19T23:46:13;22.80;;;3.08;;
52962;SDS011;38827;53.024;6.596;2023-11-19T23:48:40;16.77;;;3.10;;
52962;SDS011;38827;53.024;6.596;2023-11-19T23:51:06;21.58;;;3.80;;
52962;SDS011;38827;53.024;6.596;2023-11-19T23:53:34;17.17;;;2.67;;
52962;SDS011;38827;53.024;6.596;2023-11-19T23:56:00;21.52;;;3.30;;
52962;SDS011;38827;53.024;6.596;2023-11-19T23:58:25;20.35;;;3.15;;
